createdAt,value
2022-10-31T00:01:21.498Z,76.63
2022-10-31T00:03:45.042Z,75.25
2022-10-31T00:06:09.171Z,80.53
2022-10-31T00:08:32.760Z,81.30
2022-10-31T00:10:56.305Z,82.03
2022-10-31T00:15:45.839Z,92.90
2022-10-31T00:18:11.304Z,87.40
2022-10-31T00:20:35.197Z,81.90
2022-10-31T00:23:00.719Z,75.47
2022-10-31T00:25:24.245Z,82.05
2022-10-31T00:27:47.774Z,90.55
2022-10-31T00:30:13.822Z,102.32
2022-10-31T00:32:38.236Z,90.63
2022-10-31T00:35:01.947Z,85.57
2022-10-31T00:37:25.750Z,88.32
2022-10-31T00:39:50.617Z,87.78
2022-10-31T00:42:14.154Z,82.55
2022-10-31T00:44:40.306Z,102.25
2022-10-31T00:47:05.537Z,95.15
2022-10-31T00:49:29.254Z,79.28
2022-10-31T00:51:53.190Z,88.18
2022-10-31T00:54:16.796Z,84.30
2022-10-31T00:56:41.147Z,87.07
2022-10-31T00:59:05.349Z,83.85
2022-10-31T01:01:29.065Z,85.53
2022-10-31T01:03:54.154Z,92.20
2022-10-31T01:06:18.174Z,78.35
2022-10-31T01:08:42.734Z,95.03
2022-10-31T01:11:15.690Z,86.85
2022-10-31T01:13:39.552Z,91.00
2022-10-31T01:16:04.272Z,89.70
2022-10-31T01:18:29.993Z,100.35
2022-10-31T01:21:02.980Z,105.72
2022-10-31T01:23:26.532Z,87.75
2022-10-31T01:25:50.072Z,89.35
2022-10-31T01:28:13.733Z,82.55
2022-10-31T01:30:37.269Z,89.45
2022-10-31T01:33:01.077Z,89.65
2022-10-31T01:35:24.968Z,88.90
2022-10-31T01:37:49.926Z,80.03
2022-10-31T01:40:13.615Z,84.18
2022-10-31T01:42:37.660Z,101.63
2022-10-31T01:45:03.748Z,91.85
2022-10-31T01:47:40.789Z,91.90
2022-10-31T01:50:21.366Z,94.20
2022-10-31T01:52:51.114Z,83.60
2022-10-31T01:55:20.674Z,87.90
2022-10-31T01:57:48.977Z,78.30
2022-10-31T02:00:16.410Z,86.80
2022-10-31T02:02:40.236Z,75.88
2022-10-31T02:05:09.455Z,94.10
2022-10-31T02:07:40.524Z,79.18
2022-10-31T02:10:06.568Z,84.88
2022-10-31T02:12:31.164Z,87.95
2022-10-31T02:14:56.557Z,80.55
2022-10-31T02:17:20.151Z,88.18
2022-10-31T02:19:55.003Z,91.35
2022-10-31T02:22:29.176Z,81.07
2022-10-31T02:25:18.662Z,80.57
2022-10-31T02:28:27.657Z,79.88
2022-10-31T02:31:07.378Z,82.63
2022-10-31T02:33:41.402Z,65.90
2022-10-31T02:36:12.912Z,76.88
2022-10-31T02:38:53.696Z,84.38
2022-10-31T02:41:39.546Z,88.47
2022-10-31T02:44:13.712Z,83.03
2022-10-31T02:46:46.687Z,83.30
2022-10-31T02:49:23.294Z,76.00
2022-10-31T02:51:47.674Z,87.68
2022-10-31T02:54:22.289Z,79.32
2022-10-31T02:56:51.459Z,87.35
2022-10-31T02:59:15.274Z,79.88
2022-10-31T03:02:07.233Z,94.15
2022-10-31T03:04:58.760Z,78.50
2022-10-31T03:07:33.285Z,82.90
2022-10-31T03:10:09.705Z,86.35
2022-10-31T03:12:44.547Z,88.63
2022-10-31T03:15:21.897Z,76.45
2022-10-31T03:17:58.921Z,85.55
2022-10-31T03:20:32.387Z,87.03
2022-10-31T03:22:58.461Z,90.57
2022-10-31T03:25:22.082Z,88.57
2022-10-31T03:27:47.042Z,74.38
2022-10-31T03:30:11.687Z,93.95
2022-10-31T03:32:55.516Z,80.65
2022-10-31T03:35:23.223Z,82.13
2022-10-31T03:37:48.894Z,83.45
2022-10-31T03:40:14.943Z,82.35
2022-10-31T03:42:43.702Z,76.95
2022-10-31T03:45:12.751Z,93.95
2022-10-31T03:47:40.244Z,84.43
2022-10-31T03:50:06.365Z,78.88
2022-10-31T03:52:35.569Z,90.30
2022-10-31T03:55:02.384Z,76.90
2022-10-31T03:57:31.862Z,77.47
2022-10-31T04:00:00.734Z,83.80
2022-10-31T04:02:31.588Z,82.32
2022-10-31T04:04:55.736Z,80.72
2022-10-31T04:07:22.278Z,73.75
2022-10-31T04:09:49.070Z,80.00
2022-10-31T04:12:16.769Z,80.85
2022-10-31T04:14:47.248Z,75.40
2022-10-31T04:17:17.946Z,75.00
2022-10-31T04:19:42.311Z,76.60
2022-10-31T04:22:07.126Z,76.93
2022-10-31T04:24:32.125Z,77.03
2022-10-31T04:26:55.950Z,85.78
2022-10-31T04:29:20.945Z,72.95
2022-10-31T04:31:44.509Z,79.85
2022-10-31T04:34:08.411Z,71.60
2022-10-31T04:36:31.984Z,76.63
2022-10-31T04:38:55.824Z,77.50
2022-10-31T04:41:32.536Z,79.30
2022-10-31T04:43:59.065Z,78.65
2022-10-31T04:46:24.473Z,70.20
2022-10-31T04:48:48.211Z,74.72
2022-10-31T04:51:13.014Z,83.75
2022-10-31T04:53:37.060Z,72.95
2022-10-31T04:56:18.867Z,70.07
2022-10-31T04:58:46.410Z,86.13
2022-10-31T05:01:10.331Z,66.78
2022-10-31T05:03:34.018Z,69.63
2022-10-31T05:05:57.533Z,68.85
2022-10-31T05:08:21.226Z,76.35
2022-10-31T05:10:47.681Z,78.05
2022-10-31T05:13:11.851Z,74.38
2022-10-31T05:15:55.742Z,75.93
2022-10-31T05:18:19.331Z,78.38
2022-10-31T05:21:01.221Z,76.78
2022-10-31T05:23:39.767Z,82.57
2022-10-31T05:26:06.392Z,70.47
2022-10-31T05:28:31.030Z,75.45
2022-10-31T05:30:56.413Z,82.30
2022-10-31T05:33:20.046Z,69.78
2022-10-31T05:36:02.010Z,68.97
2022-10-31T05:38:35.461Z,75.30
2022-10-31T05:41:07.742Z,67.82
2022-10-31T05:43:32.038Z,76.75
2022-10-31T05:45:58.877Z,68.75
2022-10-31T05:49:01.740Z,71.70
2022-10-31T05:51:44.831Z,77.70
2022-10-31T05:54:11.976Z,72.50
2022-10-31T05:56:38.873Z,75.35
2022-10-31T05:59:02.598Z,75.45
2022-10-31T06:01:27.830Z,74.90
2022-10-31T06:03:52.988Z,72.88
2022-10-31T06:06:20.154Z,69.85
2022-10-31T06:08:43.869Z,78.28
2022-10-31T06:11:17.225Z,69.70
2022-10-31T06:14:12.894Z,69.30
2022-10-31T06:16:58.338Z,69.43
2022-10-31T06:19:40.194Z,73.10
2022-10-31T06:22:05.071Z,67.10
2022-10-31T06:24:29.833Z,70.18
2022-10-31T06:27:16.513Z,67.75
2022-10-31T06:29:40.353Z,69.85
2022-10-31T06:32:12.946Z,62.95
2022-10-31T06:34:39.991Z,70.20
2022-10-31T06:37:04.963Z,65.68
2022-10-31T06:39:28.710Z,68.05
2022-10-31T06:41:52.413Z,69.65
2022-10-31T06:44:18.298Z,62.03
2022-10-31T06:46:41.916Z,57.90
2022-10-31T06:49:32.764Z,60.45
2022-10-31T06:51:59.479Z,70.82
2022-10-31T06:54:23.596Z,66.88
2022-10-31T06:56:48.854Z,74.57
2022-10-31T06:59:13.144Z,69.15
2022-10-31T07:02:05.954Z,76.57
2022-10-31T07:04:32.184Z,64.95
2022-10-31T07:06:55.870Z,73.38
2022-10-31T07:09:19.558Z,70.60
2022-10-31T07:11:44.188Z,82.57
2022-10-31T07:14:07.961Z,75.43
2022-10-31T07:16:31.489Z,80.53
2022-10-31T07:18:55.122Z,74.88
2022-10-31T07:21:20.193Z,66.47
2022-10-31T07:23:43.886Z,81.70
2022-10-31T07:26:39.146Z,82.80
2022-10-31T07:29:02.744Z,74.20
2022-10-31T07:31:26.571Z,81.22
2022-10-31T07:33:54.258Z,70.38
2022-10-31T07:36:25.166Z,74.55
2022-10-31T07:38:51.697Z,78.97
2022-10-31T07:41:15.581Z,64.65
2022-10-31T07:43:41.250Z,65.38
2022-10-31T07:46:27.992Z,67.47
2022-10-31T07:49:29.907Z,76.75
2022-10-31T07:52:13.589Z,77.85
2022-10-31T07:54:55.393Z,70.13
2022-10-31T07:57:24.139Z,65.22
2022-10-31T07:59:48.653Z,59.78
2022-10-31T08:02:14.352Z,63.95
2022-10-31T08:04:58.691Z,63.40
2022-10-31T08:07:44.840Z,72.35
2022-10-31T08:10:15.209Z,56.50
2022-10-31T08:12:38.785Z,56.00
2022-10-31T08:15:04.829Z,57.70
2022-10-31T08:17:28.601Z,67.30
2022-10-31T08:19:54.484Z,60.30
2022-10-31T08:22:22.825Z,61.40
2022-10-31T08:24:48.173Z,52.17
2022-10-31T08:27:11.810Z,60.33
2022-10-31T08:29:36.706Z,51.35
2022-10-31T08:32:01.546Z,51.58
2022-10-31T08:34:43.746Z,53.53
2022-10-31T08:37:25.725Z,59.75
2022-10-31T08:39:53.267Z,57.22
2022-10-31T08:42:17.861Z,63.70
2022-10-31T08:44:41.569Z,50.83
2022-10-31T08:47:05.842Z,48.22
2022-10-31T08:49:31.185Z,44.65
2022-10-31T08:51:54.782Z,47.50
2022-10-31T08:54:18.437Z,43.72
2022-10-31T08:56:58.117Z,37.92
2022-10-31T08:59:31.882Z,37.42
2022-10-31T09:02:18.059Z,42.47
2022-10-31T09:04:41.767Z,37.15
2022-10-31T09:07:21.458Z,38.28
2022-10-31T09:09:45.561Z,37.08
2022-10-31T09:12:11.174Z,32.40
2022-10-31T09:15:03.814Z,36.85
2022-10-31T09:17:41.337Z,33.88
2022-10-31T09:20:25.269Z,34.58
2022-10-31T09:22:49.392Z,37.90
2022-10-31T09:25:13.048Z,34.25
2022-10-31T09:27:39.466Z,34.53
2022-10-31T09:30:03.785Z,42.55
2022-10-31T09:32:27.378Z,39.97
2022-10-31T09:34:50.958Z,33.63
2022-10-31T09:37:17.286Z,31.90
2022-10-31T09:39:40.858Z,33.58
2022-10-31T09:42:46.377Z,38.70
2022-10-31T09:45:28.735Z,38.42
2022-10-31T09:48:12.382Z,32.47
2022-10-31T09:51:05.291Z,37.10
2022-10-31T09:53:46.154Z,35.35
2022-10-31T09:56:17.756Z,32.70
2022-10-31T09:58:47.161Z,33.15
2022-10-31T10:01:30.505Z,31.63
2022-10-31T10:04:00.882Z,28.83
2022-10-31T10:06:54.329Z,31.33
2022-10-31T10:09:50.011Z,29.38
2022-10-31T10:13:02.356Z,33.97
2022-10-31T10:16:02.493Z,27.23
2022-10-31T10:18:40.160Z,32.05
2022-10-31T10:21:25.293Z,33.33
2022-10-31T10:24:06.231Z,34.38
2022-10-31T10:26:38.322Z,36.53
2022-10-31T10:29:13.208Z,34.83
2022-10-31T10:31:43.932Z,35.70
2022-10-31T10:34:19.363Z,28.33
2022-10-31T10:36:48.629Z,36.15
2022-10-31T10:39:19.589Z,34.90
2022-10-31T10:42:02.896Z,26.80
2022-10-31T10:44:43.884Z,30.10
2022-10-31T10:47:26.815Z,31.73
2022-10-31T10:49:53.857Z,28.98
2022-10-31T10:52:43.558Z,34.67
2022-10-31T10:55:20.834Z,31.98
2022-10-31T10:57:57.742Z,34.75
2022-10-31T11:00:24.256Z,34.50
2022-10-31T11:02:49.676Z,30.13
2022-10-31T11:05:30.698Z,41.10
2022-10-31T11:07:54.493Z,37.33
2022-10-31T11:10:19.353Z,32.35
2022-10-31T11:12:44.343Z,37.33
2022-10-31T11:15:20.514Z,39.83
2022-10-31T11:17:44.464Z,40.72
2022-10-31T11:20:32.366Z,36.05
2022-10-31T11:23:06.969Z,37.67
2022-10-31T11:25:30.893Z,42.10
2022-10-31T11:28:02.539Z,35.50
2022-10-31T11:30:26.162Z,38.42
2022-10-31T11:32:53.466Z,42.55
2022-10-31T11:35:21.604Z,38.58
2022-10-31T11:37:48.540Z,41.17
2022-10-31T11:40:21.371Z,37.03
2022-10-31T11:42:45.586Z,36.60
2022-10-31T11:45:17.301Z,36.30
2022-10-31T11:47:46.273Z,42.67
2022-10-31T11:50:14.392Z,41.45
2022-10-31T11:52:42.230Z,45.15
2022-10-31T11:55:19.861Z,39.70
2022-10-31T11:57:47.588Z,45.78
2022-10-31T12:02:50.182Z,43.92
2022-10-31T12:05:22.175Z,45.00
2022-10-31T12:07:47.324Z,51.05
2022-10-31T12:10:14.557Z,45.83
2022-10-31T12:13:00.521Z,56.42
2022-10-31T12:15:35.386Z,47.13
2022-10-31T12:18:27.872Z,52.90
2022-10-31T12:21:04.491Z,48.47
2022-10-31T12:23:44.667Z,48.15
2022-10-31T12:26:19.869Z,40.33
2022-10-31T12:29:08.379Z,45.78
2022-10-31T12:31:51.755Z,50.95
2022-10-31T12:34:55.428Z,48.35
2022-10-31T12:37:34.864Z,43.70
2022-10-31T12:40:20.352Z,48.38
2022-10-31T12:42:57.666Z,51.20
2022-10-31T12:45:43.566Z,50.83
2022-10-31T12:48:35.620Z,49.95
2022-10-31T12:51:09.600Z,50.53
2022-10-31T12:53:54.746Z,59.22
2022-10-31T12:56:36.235Z,54.47
2022-10-31T12:59:06.653Z,50.83
2022-10-31T13:01:35.984Z,50.38
2022-10-31T13:04:08.285Z,51.13
2022-10-31T13:06:44.361Z,50.97
2022-10-31T13:09:14.026Z,52.63
2022-10-31T13:11:46.049Z,53.45
2022-10-31T13:14:17.589Z,47.25
2022-10-31T13:16:46.546Z,50.58
2022-10-31T13:19:18.938Z,49.03
2022-10-31T13:21:51.288Z,52.25
2022-10-31T13:24:20.225Z,48.55
2022-10-31T13:26:51.340Z,48.03
2022-10-31T13:29:23.177Z,45.15
2022-10-31T13:31:48.610Z,55.47
2022-10-31T13:34:25.467Z,50.95
2022-10-31T13:36:59.105Z,55.58
2022-10-31T13:39:34.541Z,56.75
2022-10-31T13:42:06.546Z,55.45
2022-10-31T13:44:35.904Z,60.05
2022-10-31T13:47:01.925Z,62.35
2022-10-31T13:49:40.908Z,59.95
2022-10-31T13:52:25.430Z,65.15
2022-10-31T13:54:56.702Z,62.63
2022-10-31T13:57:33.086Z,62.47
2022-10-31T14:00:03.305Z,66.30
2022-10-31T14:02:38.396Z,67.80
2022-10-31T14:05:06.880Z,67.20
2022-10-31T14:07:33.817Z,72.57
2022-10-31T14:10:01.698Z,70.35
2022-10-31T14:12:32.652Z,71.32
2022-10-31T14:15:06.501Z,77.38
2022-10-31T14:17:39.416Z,70.47
2022-10-31T14:20:36.920Z,75.00
2022-10-31T14:23:00.766Z,70.65
2022-10-31T14:25:30.362Z,62.42
2022-10-31T14:27:55.757Z,68.47
2022-10-31T14:30:23.974Z,74.85
2022-10-31T14:32:56.757Z,69.03
2022-10-31T14:35:21.698Z,79.95
2022-10-31T14:38:23.890Z,80.82
2022-10-31T14:41:09.331Z,81.10
2022-10-31T14:44:13.188Z,82.07
2022-10-31T14:46:48.756Z,81.18
2022-10-31T14:49:29.074Z,82.13
2022-10-31T14:51:54.487Z,97.78
2022-10-31T14:54:35.118Z,82.95
2022-10-31T14:57:05.192Z,92.82
2022-10-31T14:59:34.633Z,90.50
2022-10-31T15:02:02.581Z,81.32
2022-10-31T15:04:28.416Z,83.25
2022-10-31T15:06:57.746Z,84.45
2022-10-31T15:09:28.121Z,90.78
2022-10-31T15:11:51.809Z,83.90
2022-10-31T15:14:26.537Z,94.80
2022-10-31T15:16:52.159Z,100.07
2022-10-31T15:19:23.466Z,101.30
2022-10-31T15:21:47.878Z,92.80
2022-10-31T15:24:17.065Z,103.50
2022-10-31T15:26:42.663Z,105.50
2022-10-31T15:29:12.611Z,102.50
2022-10-31T15:31:36.533Z,104.82
2022-10-31T15:34:09.234Z,88.65
2022-10-31T15:36:37.308Z,89.00
2022-10-31T15:39:02.112Z,102.07
2022-10-31T15:41:34.454Z,86.03
2022-10-31T15:44:04.054Z,95.70
2022-10-31T15:46:28.783Z,88.65
2022-10-31T15:48:52.336Z,123.18
2022-10-31T15:51:17.326Z,90.25
2022-10-31T15:53:48.998Z,71.60
2022-10-31T15:56:16.261Z,115.00
2022-10-31T15:58:47.017Z,144.15
2022-10-31T16:01:24.678Z,164.18
2022-10-31T16:04:01.910Z,120.97
2022-10-31T16:06:26.890Z,111.65
2022-10-31T16:08:54.442Z,115.95
2022-10-31T16:11:25.958Z,100.28
2022-10-31T16:14:02.600Z,169.50
2022-10-31T16:16:36.278Z,94.00
2022-10-31T16:19:02.841Z,111.15
2022-10-31T16:21:32.705Z,107.63
2022-10-31T16:24:05.764Z,135.50
2022-10-31T16:26:30.260Z,94.53
2022-10-31T16:29:03.327Z,167.77
2022-10-31T16:31:33.090Z,102.22
2022-10-31T16:34:06.489Z,143.32
2022-10-31T16:36:39.517Z,163.00
2022-10-31T16:39:03.131Z,235.77
2022-10-31T16:41:27.546Z,106.15
2022-10-31T16:43:52.546Z,95.15
2022-10-31T16:46:25.056Z,332.88
2022-10-31T16:48:48.638Z,105.20
2022-10-31T16:51:12.286Z,94.50
2022-10-31T16:53:40.597Z,89.88
2022-10-31T16:56:07.753Z,325.08
2022-10-31T16:58:34.418Z,132.30
2022-10-31T17:00:58.628Z,86.82
2022-10-31T17:03:22.669Z,88.13
2022-10-31T17:05:46.589Z,190.57
2022-10-31T17:08:10.243Z,359.45
2022-10-31T17:10:35.723Z,90.45
2022-10-31T17:13:00.171Z,188.30
2022-10-31T17:15:26.885Z,262.02
2022-10-31T17:17:50.662Z,267.42
2022-10-31T17:20:22.113Z,269.92
2022-10-31T17:22:45.743Z,251.68
2022-10-31T17:25:12.901Z,223.45
2022-10-31T17:27:37.906Z,263.55
2022-10-31T17:30:01.413Z,179.75
2022-10-31T17:32:25.071Z,148.77
2022-10-31T17:34:48.590Z,296.80
2022-10-31T17:37:12.618Z,94.88
2022-10-31T17:39:36.198Z,280.55
2022-10-31T17:41:59.797Z,143.73
2022-10-31T17:44:24.722Z,153.90
2022-10-31T17:46:48.314Z,208.82
2022-10-31T17:49:13.081Z,193.55
2022-10-31T17:51:36.885Z,212.02
2022-10-31T17:54:00.606Z,156.98
2022-10-31T17:56:24.232Z,501.98
2022-10-31T17:58:47.721Z,111.57
2022-10-31T18:01:17.597Z,101.20
2022-10-31T18:03:41.963Z,132.50
2022-10-31T18:06:06.072Z,338.73
2022-10-31T18:08:31.301Z,487.05
2022-10-31T18:10:55.129Z,119.22
2022-10-31T18:13:18.709Z,688.50
2022-10-31T18:15:42.254Z,362.20
2022-10-31T18:18:07.954Z,309.10
2022-10-31T18:20:31.499Z,322.52
2022-10-31T18:22:55.576Z,341.15
2022-10-31T18:25:19.583Z,345.52
2022-10-31T18:27:43.153Z,200.93
2022-10-31T18:30:08.343Z,148.98
2022-10-31T18:32:31.921Z,456.77
2022-10-31T18:34:56.842Z,541.75
2022-10-31T18:37:20.373Z,178.02
2022-10-31T18:39:43.956Z,152.85
2022-10-31T18:42:07.596Z,397.58
2022-10-31T18:44:32.083Z,319.15
2022-10-31T18:46:55.898Z,188.30
2022-10-31T18:49:22.718Z,393.30
2022-10-31T18:51:47.664Z,138.10
2022-10-31T18:54:12.182Z,315.98
2022-10-31T18:56:35.715Z,245.20
2022-10-31T18:59:02.276Z,227.77
2022-10-31T19:01:25.871Z,601.88
2022-10-31T19:03:55.758Z,189.30
2022-10-31T19:06:19.326Z,153.98
2022-10-31T19:08:44.245Z,453.25
2022-10-31T19:11:09.164Z,242.80
2022-10-31T19:13:34.199Z,210.15
2022-10-31T19:15:57.774Z,108.85
2022-10-31T19:18:21.354Z,417.02
2022-10-31T19:20:44.920Z,199.93
2022-10-31T19:23:08.605Z,169.23
2022-10-31T19:25:33.833Z,176.15
2022-10-31T19:27:57.417Z,120.47
2022-10-31T19:30:21.413Z,195.00
2022-10-31T19:32:44.983Z,208.38
2022-10-31T19:35:11.056Z,179.68
2022-10-31T19:37:34.686Z,412.92
2022-10-31T19:39:58.233Z,253.00
2022-10-31T19:42:24.324Z,361.10
2022-10-31T19:44:47.903Z,226.18
2022-10-31T19:47:12.175Z,124.25
2022-10-31T19:49:35.790Z,324.13
2022-10-31T19:51:59.389Z,358.60
2022-10-31T19:54:22.958Z,318.45
2022-10-31T19:56:46.582Z,202.77
2022-10-31T19:59:11.699Z,300.67
2022-10-31T20:01:35.453Z,250.85
2022-10-31T20:03:59.182Z,244.00
2022-10-31T20:06:26.933Z,141.15
2022-10-31T20:08:50.718Z,436.95
2022-10-31T20:11:14.449Z,290.45
2022-10-31T20:13:38.188Z,681.30
2022-10-31T20:16:06.721Z,313.80
2022-10-31T20:18:30.883Z,476.98
2022-10-31T20:20:54.804Z,144.40
2022-10-31T20:23:18.348Z,254.43
2022-10-31T20:25:49.589Z,246.70
2022-10-31T20:28:13.161Z,272.80
2022-10-31T20:30:38.177Z,354.00
2022-10-31T20:33:03.475Z,173.18
2022-10-31T20:35:27.337Z,235.52
2022-10-31T20:37:50.945Z,241.43
2022-10-31T20:40:14.503Z,239.07
2022-10-31T20:42:38.218Z,141.40
2022-10-31T20:45:01.741Z,249.13
2022-10-31T20:47:25.997Z,395.30
2022-10-31T20:49:51.262Z,411.52
2022-10-31T20:52:14.905Z,593.75
2022-10-31T20:54:38.477Z,390.67
2022-10-31T20:57:02.065Z,251.77
2022-10-31T20:59:25.562Z,249.90
2022-10-31T21:01:49.281Z,404.08
2022-10-31T21:04:13.037Z,214.02
2022-10-31T21:06:37.970Z,357.23
2022-10-31T21:09:01.483Z,289.05
2022-10-31T21:11:27.785Z,203.90
2022-10-31T21:13:52.338Z,464.35
2022-10-31T21:16:18.268Z,443.63
2022-10-31T21:18:44.455Z,189.73
2022-10-31T21:21:10.284Z,311.50
2022-10-31T21:23:35.276Z,189.95
2022-10-31T21:25:58.933Z,355.67
2022-10-31T21:28:22.583Z,199.45
2022-10-31T21:30:49.818Z,167.70
2022-10-31T21:33:14.155Z,391.45
2022-10-31T21:35:38.059Z,148.52
2022-10-31T21:38:02.082Z,413.42
2022-10-31T21:40:27.499Z,176.77
2022-10-31T21:42:50.998Z,313.80
2022-10-31T21:45:14.607Z,232.43
2022-10-31T21:47:38.113Z,347.73
2022-10-31T21:50:01.658Z,410.98
2022-10-31T21:52:25.194Z,224.82
2022-10-31T21:54:47.938Z,247.95
2022-10-31T21:57:12.934Z,233.85
2022-10-31T21:59:36.514Z,210.60
2022-10-31T22:02:01.445Z,188.50
2022-10-31T22:04:25.931Z,222.48
2022-10-31T22:06:49.610Z,251.13
2022-10-31T22:09:15.625Z,240.88
2022-10-31T22:11:39.294Z,213.75
2022-10-31T22:14:05.079Z,229.32
2022-10-31T22:16:30.806Z,200.80
2022-10-31T22:18:55.873Z,258.95
2022-10-31T22:21:22.893Z,204.77
2022-10-31T22:23:51.367Z,210.95
2022-10-31T22:26:17.489Z,235.23
2022-10-31T22:28:41.657Z,279.17
2022-10-31T22:31:07.874Z,206.50
2022-10-31T22:33:31.535Z,239.63
2022-10-31T22:35:55.055Z,311.38
2022-10-31T22:38:18.617Z,282.77
2022-10-31T22:40:42.219Z,176.88
2022-10-31T22:43:05.851Z,202.98
2022-10-31T22:45:29.414Z,243.52
2022-10-31T22:47:54.360Z,208.32
2022-10-31T22:50:18.080Z,259.13
2022-10-31T22:52:41.713Z,193.63
2022-10-31T22:55:05.902Z,211.27
2022-10-31T22:57:29.520Z,175.73
2022-10-31T22:59:53.321Z,242.60
2022-10-31T23:02:17.111Z,232.60
2022-10-31T23:04:42.104Z,216.23
2022-10-31T23:07:05.677Z,203.27
2022-10-31T23:09:30.017Z,237.80
2022-10-31T23:11:53.656Z,273.40
2022-10-31T23:14:20.863Z,204.50
2022-10-31T23:16:48.253Z,249.75
2022-10-31T23:19:14.846Z,182.18
2022-10-31T23:21:56.499Z,256.70
2022-10-31T23:24:20.842Z,196.48
2022-10-31T23:27:01.855Z,241.52
2022-10-31T23:29:25.545Z,162.52
2022-10-31T23:31:49.214Z,193.48
2022-10-31T23:34:13.037Z,198.45
2022-10-31T23:36:36.562Z,199.88
2022-10-31T23:39:01.627Z,161.18
2022-10-31T23:41:25.218Z,167.32
2022-10-31T23:43:48.817Z,198.77
2022-10-31T23:46:12.317Z,170.32
2022-10-31T23:48:35.913Z,178.93
2022-10-31T23:50:59.419Z,166.23
2022-10-31T23:53:23.078Z,177.65
2022-10-31T23:55:48.014Z,158.55
2022-10-31T23:58:11.577Z,165.95
